Time;durP1;ratioP1;P1;durP2;ratioP2;P2;SDS_P1;SDS_P2;PMS_P1;PMS_P2;Temp;Humidity;BMP_temperature;BMP_pressure;BME280_temperature;BME280_humidity;BME280_pressure;Samples;Min_cycle;Max_cycle;Signal;HPM_P1;HPM_P2
2021/07/18 00:00:19;;;;;;;35.72;20.55;;;;;;;;;;5027474;28;20025;-67
2021/07/18 00:02:44;;;;;;;36.90;19.83;;;;;;;;;;5034798;28;20025;-67
2021/07/18 00:05:09;;;;;;;31.80;19.63;;;;;;;;;;5026154;28;20051;-67
2021/07/18 00:07:34;;;;;;;35.72;20.95;;;;;;;;;;5022747;28;20260;-68
2021/07/18 00:10:00;;;;;;;35.13;19.58;;;;;;;;;;5025624;28;20374;-68
2021/07/18 00:12:25;;;;;;;37.40;21.00;;;;;;;;;;5033697;28;20104;-68
2021/07/18 00:14:50;;;;;;;36.95;20.20;;;;;;;;;;5034195;28;20037;-68
2021/07/18 00:17:15;;;;;;;32.28;19.67;;;;;;;;;;5032747;28;20025;-67
2021/07/18 00:19:41;;;;;;;34.03;20.13;;;;;;;;;;5028398;28;20028;-67
2021/07/18 00:22:06;;;;;;;33.28;20.65;;;;;;;;;;5035956;28;20325;-68
2021/07/18 00:24:31;;;;;;;35.85;21.02;;;;;;;;;;5034157;28;20029;-68
2021/07/18 00:26:56;;;;;;;40.85;20.95;;;;;;;;;;5034090;28;20055;-67
2021/07/18 00:29:22;;;;;;;35.55;20.08;;;;;;;;;;5025056;28;20030;-67
2021/07/18 00:31:47;;;;;;;32.08;19.63;;;;;;;;;;5032684;28;20021;-67
2021/07/18 00:34:12;;;;;;;37.73;19.80;;;;;;;;;;5030120;28;20018;-68
2021/07/18 00:36:37;;;;;;;29.10;18.67;;;;;;;;;;5045880;28;20299;-68
2021/07/18 00:39:03;;;;;;;32.72;19.30;;;;;;;;;;5032880;28;20068;-67
2021/07/18 00:41:28;;;;;;;31.67;19.27;;;;;;;;;;5045128;28;20080;-69
2021/07/18 00:43:53;;;;;;;28.10;19.27;;;;;;;;;;5030154;28;20373;-68
2021/07/18 00:46:18;;;;;;;30.97;19.70;;;;;;;;;;5036968;28;20056;-68
2021/07/18 00:48:44;;;;;;;31.80;19.23;;;;;;;;;;5029697;28;20284;-67
2021/07/18 00:51:09;;;;;;;30.90;19.20;;;;;;;;;;5032269;28;20308;-67
2021/07/18 00:53:34;;;;;;;32.38;18.15;;;;;;;;;;5038105;28;20271;-68
2021/07/18 00:56:00;;;;;;;28.65;19.17;;;;;;;;;;5038116;28;20045;-67
2021/07/18 00:58:28;;;;;;;29.88;17.52;;;;;;;;;;5034815;28;20032;-67
2021/07/18 01:00:53;;;;;;;29.35;18.70;;;;;;;;;;5039940;28;20099;-67
2021/07/18 01:03:18;;;;;;;33.72;18.52;;;;;;;;;;5036319;28;20026;-68
2021/07/18 01:05:44;;;;;;;29.50;17.33;;;;;;;;;;5040108;28;20037;-68
2021/07/18 01:08:09;;;;;;;27.03;18.03;;;;;;;;;;5030822;28;20025;-68
2021/07/18 01:10:34;;;;;;;28.02;17.17;;;;;;;;;;5040202;28;20279;-68
2021/07/18 01:12:59;;;;;;;27.33;17.42;;;;;;;;;;5041931;28;20056;-67
2021/07/18 01:15:25;;;;;;;30.40;17.60;;;;;;;;;;5040580;28;20127;-69
2021/07/18 01:17:50;;;;;;;26.58;15.98;;;;;;;;;;5034347;28;20032;-68
2021/07/18 01:20:16;;;;;;;29.30;16.38;;;;;;;;;;5030034;28;20053;-71
2021/07/18 01:22:41;;;;;;;26.25;16.63;;;;;;;;;;5039120;28;20025;-68
2021/07/18 01:25:08;;;;;;;27.27;17.20;;;;;;;;;;5031379;28;20528;-67
2021/07/18 01:27:34;;;;;;;27.30;17.70;;;;;;;;;;5039400;28;20552;-68
2021/07/18 01:29:59;;;;;;;27.02;16.75;;;;;;;;;;5032369;28;20055;-67
2021/07/18 01:32:24;;;;;;;27.85;16.20;;;;;;;;;;5030877;28;20104;-68
2021/07/18 01:34:49;;;;;;;29.13;17.07;;;;;;;;;;5036141;28;20021;-68
2021/07/18 01:37:15;;;;;;;26.60;15.93;;;;;;;;;;5044278;28;20264;-67
2021/07/18 01:39:40;;;;;;;27.60;16.13;;;;;;;;;;5030461;28;20307;-67
2021/07/18 01:42:05;;;;;;;24.70;14.20;;;;;;;;;;5029757;28;20017;-67
2021/07/18 01:44:31;;;;;;;27.83;15.32;;;;;;;;;;5036320;28;20288;-68
2021/07/18 01:46:56;;;;;;;24.35;13.95;;;;;;;;;;5030162;28;20029;-68
2021/07/18 01:49:21;;;;;;;25.98;16.25;;;;;;;;;;5030513;28;20081;-67
2021/07/18 01:51:46;;;;;;;27.03;15.03;;;;;;;;;;5034069;28;20036;-67
2021/07/18 01:54:12;;;;;;;25.60;14.25;;;;;;;;;;5029817;28;20268;-68
2021/07/18 01:56:37;;;;;;;24.55;14.32;;;;;;;;;;5039111;28;20079;-67
2021/07/18 01:59:03;;;;;;;26.58;15.23;;;;;;;;;;5036454;28;20030;-67
2021/07/18 02:01:30;;;;;;;20.98;13.52;;;;;;;;;;5029808;28;20463;-68
2021/07/18 02:03:56;;;;;;;21.60;12.95;;;;;;;;;;5029336;28;20060;-68
2021/07/18 02:06:22;;;;;;;22.20;13.55;;;;;;;;;;5036548;28;20423;-68
2021/07/18 02:08:48;;;;;;;28.65;13.55;;;;;;;;;;5029435;28;20049;-68
2021/07/18 02:11:15;;;;;;;21.40;13.60;;;;;;;;;;5035796;28;20056;-68
2021/07/18 02:13:40;;;;;;;21.15;13.38;;;;;;;;;;5027175;28;20059;-68
2021/07/18 02:16:05;;;;;;;22.20;13.47;;;;;;;;;;5037560;28;20056;-69
2021/07/18 02:18:30;;;;;;;22.05;13.57;;;;;;;;;;5032996;28;20264;-67
2021/07/18 02:20:56;;;;;;;23.65;13.35;;;;;;;;;;5030421;28;20036;-68
2021/07/18 02:23:22;;;;;;;24.05;13.50;;;;;;;;;;5035979;28;20025;-67
2021/07/18 02:25:47;;;;;;;20.50;13.53;;;;;;;;;;5035675;28;20033;-68
2021/07/18 02:28:13;;;;;;;18.33;12.07;;;;;;;;;;5025562;28;20359;-67
2021/07/18 02:30:38;;;;;;;23.10;13.77;;;;;;;;;;5036370;28;20022;-68
2021/07/18 02:33:03;;;;;;;17.73;11.30;;;;;;;;;;5034307;28;20514;-66
2021/07/18 02:35:28;;;;;;;20.75;11.75;;;;;;;;;;5033093;28;20028;-68
2021/07/18 02:37:53;;;;;;;23.15;12.90;;;;;;;;;;5034972;28;20021;-69
2021/07/18 02:40:19;;;;;;;18.55;11.43;;;;;;;;;;5029765;28;20063;-68
2021/07/18 02:42:45;;;;;;;21.08;12.00;;;;;;;;;;5039867;28;20048;-68
2021/07/18 02:45:11;;;;;;;20.38;12.40;;;;;;;;;;5043510;28;20163;-67
2021/07/18 02:47:37;;;;;;;17.23;9.80;;;;;;;;;;5034800;28;20514;-69
2021/07/18 02:50:09;;;;;;;21.55;11.45;;;;;;;;;;5037206;28;20061;-68
2021/07/18 02:52:34;;;;;;;15.43;9.98;;;;;;;;;;5035100;28;20017;-68
2021/07/18 02:54:59;;;;;;;16.55;11.27;;;;;;;;;;5039195;28;20036;-68
2021/07/18 02:57:25;;;;;;;17.23;10.93;;;;;;;;;;5037496;28;20542;-68
2021/07/18 02:59:50;;;;;;;20.15;9.63;;;;;;;;;;5035358;28;20436;-67
2021/07/18 03:02:15;;;;;;;17.73;9.77;;;;;;;;;;5037695;28;20053;-68
2021/07/18 03:04:40;;;;;;;14.83;7.93;;;;;;;;;;5034781;28;20033;-69
2021/07/18 03:07:06;;;;;;;20.17;9.80;;;;;;;;;;5031800;28;20355;-68
2021/07/18 03:09:31;;;;;;;16.65;9.63;;;;;;;;;;5027465;28;20295;-69
2021/07/18 03:11:56;;;;;;;14.25;9.63;;;;;;;;;;5035564;28;20021;-69
2021/07/18 03:14:21;;;;;;;19.57;9.80;;;;;;;;;;5044619;28;20021;-67
2021/07/18 03:16:49;;;;;;;16.77;8.98;;;;;;;;;;5036284;28;20287;-68
2021/07/18 03:19:15;;;;;;;14.45;8.15;;;;;;;;;;5026156;28;20040;-68
2021/07/18 03:21:40;;;;;;;17.10;8.68;;;;;;;;;;5027068;28;20033;-68
2021/07/18 03:24:05;;;;;;;18.25;8.48;;;;;;;;;;5029618;28;20045;-69
2021/07/18 03:26:30;;;;;;;14.93;8.23;;;;;;;;;;5043483;28;20444;-68
2021/07/18 03:28:56;;;;;;;15.32;8.00;;;;;;;;;;5034236;28;20017;-69
2021/07/18 03:31:21;;;;;;;12.60;7.72;;;;;;;;;;5033396;28;20060;-69
2021/07/18 03:33:46;;;;;;;15.25;7.68;;;;;;;;;;5026694;28;20097;-68
2021/07/18 03:36:11;;;;;;;13.57;6.37;;;;;;;;;;5027628;28;20033;-69
2021/07/18 03:38:37;;;;;;;16.52;7.90;;;;;;;;;;5033056;28;20275;-68
2021/07/18 03:41:02;;;;;;;12.27;7.35;;;;;;;;;;5028522;28;20067;-69
2021/07/18 03:43:27;;;;;;;16.80;7.72;;;;;;;;;;5024927;28;20025;-69
2021/07/18 03:45:52;;;;;;;14.90;7.85;;;;;;;;;;5036875;28;20033;-68
2021/07/18 03:48:18;;;;;;;17.30;7.67;;;;;;;;;;5032934;28;20137;-70
2021/07/18 03:50:44;;;;;;;12.75;7.38;;;;;;;;;;5025604;28;20323;-69
2021/07/18 03:53:09;;;;;;;14.93;6.78;;;;;;;;;;5040900;28;20260;-69
2021/07/18 03:55:34;;;;;;;12.60;7.25;;;;;;;;;;5029963;28;20048;-69
2021/07/18 03:57:59;;;;;;;14.85;7.32;;;;;;;;;;5037175;28;20392;-69
2021/07/18 04:00:24;;;;;;;11.13;6.50;;;;;;;;;;5028060;28;20033;-69
2021/07/18 04:02:50;;;;;;;9.43;6.33;;;;;;;;;;5035399;28;20406;-69
2021/07/18 04:05:15;;;;;;;14.57;6.50;;;;;;;;;;5029611;28;20307;-68
2021/07/18 04:07:40;;;;;;;11.18;6.55;;;;;;;;;;5026087;28;20703;-70
2021/07/18 04:10:06;;;;;;;9.30;5.72;;;;;;;;;;5025363;28;20029;-69
2021/07/18 04:12:31;;;;;;;13.13;6.63;;;;;;;;;;5026310;28;20079;-69
2021/07/18 04:14:56;;;;;;;14.13;6.40;;;;;;;;;;5022894;28;20037;-69
2021/07/18 04:17:21;;;;;;;10.05;6.18;;;;;;;;;;5027928;28;20025;-69
2021/07/18 04:19:47;;;;;;;12.63;5.90;;;;;;;;;;5042577;28;20476;-69
2021/07/18 04:22:12;;;;;;;15.38;6.43;;;;;;;;;;5026009;28;20033;-68
2021/07/18 04:24:37;;;;;;;11.25;6.30;;;;;;;;;;5031631;28;20080;-68
2021/07/18 04:27:02;;;;;;;13.65;7.10;;;;;;;;;;5038949;28;20025;-69
2021/07/18 04:29:27;;;;;;;13.98;6.95;;;;;;;;;;5027430;28;20288;-69
2021/07/18 04:31:52;;;;;;;14.57;6.67;;;;;;;;;;5042725;28;20100;-69
2021/07/18 04:34:18;;;;;;;19.27;7.47;;;;;;;;;;5038040;28;20771;-69
2021/07/18 04:36:43;;;;;;;14.00;7.22;;;;;;;;;;5035883;28;20318;-69
2021/07/18 04:39:09;;;;;;;13.20;5.97;;;;;;;;;;5026465;28;20415;-68
2021/07/18 04:41:34;;;;;;;12.18;6.50;;;;;;;;;;5026466;28;20021;-68
2021/07/18 04:43:59;;;;;;;12.38;5.95;;;;;;;;;;5026737;28;20108;-67
2021/07/18 04:46:25;;;;;;;12.38;6.53;;;;;;;;;;5035300;28;20060;-69
2021/07/18 04:48:50;;;;;;;12.67;6.77;;;;;;;;;;5035782;28;20087;-68
2021/07/18 04:51:15;;;;;;;15.00;6.50;;;;;;;;;;5027037;28;20304;-68
2021/07/18 04:53:40;;;;;;;9.45;5.53;;;;;;;;;;5027742;28;20025;-70
2021/07/18 04:56:05;;;;;;;8.73;5.55;;;;;;;;;;5034874;28;20072;-69
2021/07/18 04:58:31;;;;;;;14.40;5.83;;;;;;;;;;5026558;28;20049;-69
2021/07/18 05:00:56;;;;;;;9.25;4.90;;;;;;;;;;5028809;28;20280;-68
2021/07/18 05:03:21;;;;;;;14.60;5.70;;;;;;;;;;5039553;28;20017;-69
2021/07/18 05:05:46;;;;;;;12.25;5.55;;;;;;;;;;5026040;28;20538;-68
2021/07/18 05:08:11;;;;;;;9.98;5.53;;;;;;;;;;5026642;28;20032;-68
2021/07/18 05:10:36;;;;;;;12.35;5.18;;;;;;;;;;5028591;28;20075;-68
2021/07/18 05:13:02;;;;;;;10.70;4.63;;;;;;;;;;5035334;28;20021;-68
2021/07/18 05:15:27;;;;;;;13.82;5.07;;;;;;;;;;5033687;28;20395;-69
2021/07/18 05:17:54;;;;;;;14.88;5.18;;;;;;;;;;5027660;28;20465;-68
2021/07/18 05:20:21;;;;;;;14.30;5.93;;;;;;;;;;5038949;28;20100;-68
2021/07/18 05:22:46;;;;;;;13.88;5.85;;;;;;;;;;5031311;28;20014;-69
2021/07/18 05:25:12;;;;;;;9.80;5.05;;;;;;;;;;5043632;28;20037;-69
2021/07/18 05:27:38;;;;;;;8.50;4.50;;;;;;;;;;5030632;28;20033;-69
2021/07/18 05:30:04;;;;;;;13.50;4.93;;;;;;;;;;5029456;28;20112;-69
2021/07/18 05:32:29;;;;;;;10.95;5.88;;;;;;;;;;5038433;28;20100;-68
2021/07/18 05:34:54;;;;;;;11.57;5.80;;;;;;;;;;5035356;28;20021;-68
2021/07/18 05:37:19;;;;;;;14.40;5.23;;;;;;;;;;5030921;28;20437;-69
2021/07/18 05:39:44;;;;;;;8.40;5.30;;;;;;;;;;5040597;28;20329;-69
2021/07/18 05:42:09;;;;;;;9.63;4.60;;;;;;;;;;5033706;28;20645;-69
2021/07/18 05:44:35;;;;;;;9.63;5.25;;;;;;;;;;5035087;28;20325;-68
2021/07/18 05:47:00;;;;;;;8.70;4.72;;;;;;;;;;5030515;28;20025;-70
2021/07/18 05:49:27;;;;;;;10.20;4.63;;;;;;;;;;5032249;28;20037;-69
2021/07/18 05:51:52;;;;;;;16.30;5.10;;;;;;;;;;5037885;28;20025;-69
2021/07/18 05:54:17;;;;;;;10.45;4.80;;;;;;;;;;5037123;28;20461;-68
2021/07/18 05:56:42;;;;;;;10.77;4.87;;;;;;;;;;5029180;28;20033;-68
2021/07/18 05:59:07;;;;;;;9.03;4.20;;;;;;;;;;5030390;28;20303;-68
2021/07/18 06:01:32;;;;;;;11.10;4.95;;;;;;;;;;5031288;28;20306;-69
2021/07/18 06:03:58;;;;;;;10.37;5.03;;;;;;;;;;5029581;28;20059;-70
2021/07/18 06:06:23;;;;;;;11.93;4.63;;;;;;;;;;5031507;28;20311;-69
2021/07/18 06:08:48;;;;;;;8.45;4.00;;;;;;;;;;5032904;28;21861;-70
2021/07/18 06:11:14;;;;;;;10.38;4.55;;;;;;;;;;5035403;28;20087;-68
2021/07/18 06:13:39;;;;;;;12.60;4.45;;;;;;;;;;5036579;28;20948;-68
2021/07/18 06:16:05;;;;;;;9.13;4.32;;;;;;;;;;5029384;28;20026;-68
2021/07/18 06:18:30;;;;;;;11.02;4.60;;;;;;;;;;5037242;28;20068;-68
2021/07/18 06:20:55;;;;;;;15.80;4.38;;;;;;;;;;5028834;28;20025;-68
2021/07/18 06:23:20;;;;;;;8.17;4.57;;;;;;;;;;5028261;28;20013;-69
2021/07/18 06:25:45;;;;;;;9.80;4.67;;;;;;;;;;5031944;28;20291;-70
2021/07/18 06:28:11;;;;;;;11.57;4.83;;;;;;;;;;5024408;28;20283;-68
2021/07/18 06:30:36;;;;;;;8.40;4.30;;;;;;;;;;5023557;28;20652;-67
2021/07/18 06:33:01;;;;;;;8.13;4.10;;;;;;;;;;5024222;28;20274;-68
2021/07/18 06:35:27;;;;;;;9.47;4.13;;;;;;;;;;5024256;28;20287;-68
2021/07/18 06:37:52;;;;;;;9.75;4.13;;;;;;;;;;5029860;28;20351;-68
2021/07/18 06:40:17;;;;;;;7.97;3.90;;;;;;;;;;5027411;28;20053;-68
2021/07/18 06:42:43;;;;;;;15.50;3.90;;;;;;;;;;5028225;28;20030;-68
2021/07/18 06:45:08;;;;;;;8.13;3.90;;;;;;;;;;5028193;28;20038;-68
2021/07/18 06:47:33;;;;;;;7.47;4.25;;;;;;;;;;5025741;28;20075;-68
2021/07/18 06:49:58;;;;;;;7.40;3.67;;;;;;;;;;5029371;28;20417;-68
2021/07/18 06:52:24;;;;;;;8.43;4.75;;;;;;;;;;5023368;28;20280;-68
2021/07/18 06:54:49;;;;;;;8.80;3.78;;;;;;;;;;5021077;28;20091;-68
2021/07/18 06:57:14;;;;;;;12.18;4.28;;;;;;;;;;5023514;28;20021;-68
2021/07/18 06:59:40;;;;;;;6.90;4.03;;;;;;;;;;5028624;28;20021;-68
2021/07/18 07:02:05;;;;;;;10.85;4.00;;;;;;;;;;5025062;28;20275;-68
2021/07/18 07:04:30;;;;;;;8.63;3.80;;;;;;;;;;5027683;28;20013;-68
2021/07/18 07:06:55;;;;;;;8.52;3.83;;;;;;;;;;5040337;28;20036;-69
2021/07/18 07:09:20;;;;;;;8.15;3.90;;;;;;;;;;5026231;28;20119;-68
2021/07/18 07:11:46;;;;;;;7.57;4.00;;;;;;;;;;5034041;28;20103;-67
2021/07/18 07:14:11;;;;;;;13.35;3.83;;;;;;;;;;5035132;28;20635;-68
2021/07/18 07:16:36;;;;;;;9.98;3.60;;;;;;;;;;5036489;28;20177;-69
2021/07/18 07:19:02;;;;;;;9.07;4.35;;;;;;;;;;5029996;28;20029;-67
2021/07/18 07:21:27;;;;;;;8.18;3.78;;;;;;;;;;5034774;28;20092;-67
2021/07/18 07:23:52;;;;;;;11.80;4.07;;;;;;;;;;5029800;28;20033;-67
2021/07/18 07:26:17;;;;;;;7.53;3.97;;;;;;;;;;5031115;28;20970;-68
2021/07/18 07:28:43;;;;;;;9.25;3.80;;;;;;;;;;5034743;28;20032;-68
2021/07/18 07:31:08;;;;;;;7.50;4.03;;;;;;;;;;5031523;28;20026;-68
2021/07/18 07:33:33;;;;;;;7.50;3.70;;;;;;;;;;5029087;28;20021;-67
2021/07/18 07:35:59;;;;;;;12.07;4.15;;;;;;;;;;5031796;28;20336;-68
2021/07/18 07:38:24;;;;;;;9.32;3.78;;;;;;;;;;5032468;28;20020;-74
2021/07/18 07:40:50;;;;;;;6.93;4.03;;;;;;;;;;5033911;28;20113;-75
2021/07/18 07:43:15;;;;;;;14.80;3.72;;;;;;;;;;5030122;28;20025;-75
2021/07/18 07:45:40;;;;;;;10.00;3.60;;;;;;;;;;5035023;28;20037;-75
2021/07/18 07:48:06;;;;;;;7.00;3.40;;;;;;;;;;5028557;28;20401;-74
2021/07/18 07:50:31;;;;;;;7.43;3.58;;;;;;;;;;5028900;28;20331;-74
2021/07/18 07:52:56;;;;;;;8.85;4.03;;;;;;;;;;5028885;28;20106;-75
2021/07/18 07:55:21;;;;;;;6.97;3.35;;;;;;;;;;5030407;28;20065;-75
2021/07/18 07:57:47;;;;;;;7.38;3.75;;;;;;;;;;5030111;28;20075;-76
2021/07/18 08:00:13;;;;;;;8.68;3.72;;;;;;;;;;5035905;28;20032;-66
2021/07/18 08:02:39;;;;;;;10.63;4.00;;;;;;;;;;5024924;28;20121;-65
2021/07/18 08:05:05;;;;;;;7.63;3.95;;;;;;;;;;5027616;28;20112;-64
2021/07/18 08:07:30;;;;;;;8.52;3.95;;;;;;;;;;5029386;28;20104;-65
2021/07/18 08:09:55;;;;;;;6.05;3.67;;;;;;;;;;5034941;28;20040;-67
2021/07/18 08:12:21;;;;;;;10.45;3.88;;;;;;;;;;5033121;28;20033;-67
2021/07/18 08:14:46;;;;;;;11.40;3.45;;;;;;;;;;5015880;28;20034;-66
2021/07/18 08:17:14;;;;;;;9.48;4.30;;;;;;;;;;5035707;28;20025;-66
2021/07/18 08:19:39;;;;;;;6.97;3.50;;;;;;;;;;5032145;28;20131;-67
2021/07/18 08:22:05;;;;;;;7.55;3.80;;;;;;;;;;5027727;28;20029;-66
2021/07/18 08:24:30;;;;;;;9.05;4.53;;;;;;;;;;5034180;28;20041;-66
2021/07/18 08:26:55;;;;;;;8.70;3.90;;;;;;;;;;5038988;28;20116;-66
2021/07/18 08:29:21;;;;;;;7.47;4.60;;;;;;;;;;5043097;28;20820;-66
2021/07/18 08:31:46;;;;;;;12.45;4.45;;;;;;;;;;5035442;28;20060;-66
2021/07/18 08:34:11;;;;;;;8.70;4.10;;;;;;;;;;5031444;28;20432;-67
2021/07/18 08:36:36;;;;;;;12.48;4.78;;;;;;;;;;5039483;28;20112;-67
2021/07/18 08:39:02;;;;;;;9.60;4.70;;;;;;;;;;5035263;28;20025;-66
2021/07/18 08:41:27;;;;;;;12.82;5.18;;;;;;;;;;5032130;28;20017;-65
2021/07/18 08:43:52;;;;;;;10.55;4.28;;;;;;;;;;5036634;28;20097;-67
2021/07/18 08:46:20;;;;;;;10.52;4.43;;;;;;;;;;5032252;28;20033;-66
2021/07/18 08:48:45;;;;;;;11.70;4.63;;;;;;;;;;5037367;28;20021;-66
2021/07/18 08:51:15;;;;;;;7.88;3.80;;;;;;;;;;5038410;28;20476;-66
2021/07/18 08:53:40;;;;;;;9.23;4.25;;;;;;;;;;5033772;28;20075;-65
2021/07/18 08:56:06;;;;;;;9.68;4.50;;;;;;;;;;5036984;28;20381;-66
2021/07/18 08:58:31;;;;;;;7.00;3.95;;;;;;;;;;5031203;28;20025;-67
2021/07/18 09:00:56;;;;;;;9.35;4.50;;;;;;;;;;5030142;28;20429;-67
2021/07/18 09:03:21;;;;;;;8.10;3.90;;;;;;;;;;5032119;28;20030;-67
2021/07/18 09:05:47;;;;;;;9.43;4.17;;;;;;;;;;5034220;28;20296;-65
2021/07/18 09:08:19;;;;;;;7.80;4.40;;;;;;;;;;5032876;28;20742;-66
2021/07/18 09:10:47;;;;;;;7.45;4.70;;;;;;;;;;5036336;28;20426;-67
2021/07/18 09:13:13;;;;;;;8.02;4.78;;;;;;;;;;5031397;28;20371;-67
2021/07/18 09:15:39;;;;;;;11.40;4.78;;;;;;;;;;5026081;28;20098;-66
2021/07/18 09:18:12;;;;;;;11.90;5.68;;;;;;;;;;5024162;28;20060;-66
2021/07/18 09:20:37;;;;;;;9.23;4.72;;;;;;;;;;5037201;28;20050;-66
2021/07/18 09:23:08;;;;;;;10.38;4.95;;;;;;;;;;5032188;28;20051;-66
2021/07/18 09:25:33;;;;;;;8.27;4.60;;;;;;;;;;5027789;28;20069;-66
2021/07/18 09:28:08;;;;;;;13.53;5.83;;;;;;;;;;5033160;28;20447;-66
2021/07/18 09:30:34;;;;;;;12.75;5.40;;;;;;;;;;5031248;28;20272;-67
2021/07/18 09:32:59;;;;;;;9.60;5.73;;;;;;;;;;5030005;28;20052;-66
2021/07/18 09:35:24;;;;;;;10.67;5.67;;;;;;;;;;5031437;28;20358;-66
2021/07/18 09:37:50;;;;;;;9.40;5.65;;;;;;;;;;5032046;28;20762;-66
2021/07/18 09:40:16;;;;;;;11.48;6.00;;;;;;;;;;5040372;28;20468;-67
2021/07/18 09:42:49;;;;;;;11.18;5.68;;;;;;;;;;5034461;28;20025;-67
2021/07/18 09:45:15;;;;;;;9.68;6.18;;;;;;;;;;5045578;28;20036;-65
2021/07/18 09:48:00;;;;;;;11.88;6.22;;;;;;;;;;5031630;28;20025;-66
2021/07/18 09:50:29;;;;;;;12.30;6.35;;;;;;;;;;5030786;28;20048;-66
2021/07/18 09:53:23;;;;;;;8.02;5.40;;;;;;;;;;5030454;28;20025;-65
2021/07/18 09:55:59;;;;;;;9.80;6.13;;;;;;;;;;5008871;28;20034;-67
2021/07/18 09:58:25;;;;;;;12.57;5.72;;;;;;;;;;5021544;28;20112;-67
2021/07/18 10:00:50;;;;;;;11.63;5.93;;;;;;;;;;5009353;28;20117;-65
2021/07/18 10:03:22;;;;;;;10.88;6.25;;;;;;;;;;5011436;28;20030;-67
2021/07/18 10:06:03;;;;;;;10.65;6.38;;;;;;;;;;5006079;28;20406;-66
2021/07/18 10:08:28;;;;;;;9.07;6.18;;;;;;;;;;5017047;28;20087;-66
2021/07/18 10:10:53;;;;;;;12.55;6.00;;;;;;;;;;5008052;28;20030;-66
2021/07/18 10:13:19;;;;;;;14.20;5.83;;;;;;;;;;5007228;28;20159;-66
2021/07/18 10:15:44;;;;;;;15.05;6.65;;;;;;;;;;5020220;28;20644;-66
2021/07/18 10:18:09;;;;;;;9.30;6.07;;;;;;;;;;5015676;28;20072;-64
2021/07/18 10:20:35;;;;;;;11.52;6.22;;;;;;;;;;5009015;28;20598;-64
2021/07/18 10:23:00;;;;;;;12.32;6.50;;;;;;;;;;5007354;28;20070;-63
2021/07/18 10:25:28;;;;;;;11.55;7.18;;;;;;;;;;5019348;28;20042;-64
2021/07/18 10:27:53;;;;;;;11.50;6.60;;;;;;;;;;5020154;28;20095;-63
2021/07/18 10:30:19;;;;;;;13.43;6.80;;;;;;;;;;5020898;28;20053;-63
2021/07/18 10:32:45;;;;;;;12.68;7.13;;;;;;;;;;5040345;28;20029;-63
2021/07/18 10:35:11;;;;;;;12.15;7.40;;;;;;;;;;5041312;28;20089;-63
2021/07/18 10:37:40;;;;;;;13.68;7.18;;;;;;;;;;5030286;28;20025;-64
2021/07/18 10:40:26;;;;;;;14.93;7.60;;;;;;;;;;5030516;28;20033;-64
2021/07/18 10:42:51;;;;;;;13.93;8.45;;;;;;;;;;5041423;28;20032;-62
2021/07/18 10:45:16;;;;;;;15.13;8.82;;;;;;;;;;5041794;28;20033;-63
2021/07/18 10:48:00;;;;;;;19.15;10.23;;;;;;;;;;5029267;28;20014;-64
2021/07/18 10:50:52;;;;;;;19.52;11.18;;;;;;;;;;5030911;28;20045;-63
2021/07/18 10:53:21;;;;;;;22.73;12.73;;;;;;;;;;5022603;28;20033;-65
2021/07/18 10:55:47;;;;;;;21.85;11.80;;;;;;;;;;5034197;28;20056;-64
2021/07/18 10:58:32;;;;;;;22.35;12.38;;;;;;;;;;5033821;28;20443;-65
2021/07/18 11:00:58;;;;;;;23.23;12.95;;;;;;;;;;5028421;28;20076;-64
2021/07/18 11:03:32;;;;;;;25.23;14.20;;;;;;;;;;5035853;28;20522;-64
2021/07/18 11:06:17;;;;;;;20.38;11.98;;;;;;;;;;5026688;28;20400;-63
2021/07/18 11:09:01;;;;;;;19.52;12.00;;;;;;;;;;5032606;28;20025;-64
2021/07/18 11:11:43;;;;;;;23.00;14.13;;;;;;;;;;5039774;28;20496;-63
2021/07/18 11:14:23;;;;;;;23.13;13.55;;;;;;;;;;5023062;28;20045;-66
2021/07/18 11:16:49;;;;;;;21.33;12.85;;;;;;;;;;5045256;28;20112;-65
2021/07/18 11:19:33;;;;;;;24.05;13.55;;;;;;;;;;5031153;28;20104;-63
2021/07/18 11:21:58;;;;;;;20.08;11.98;;;;;;;;;;5024522;28;20120;-63
2021/07/18 11:24:42;;;;;;;26.13;13.83;;;;;;;;;;5028319;28;20100;-64
2021/07/18 11:27:43;;;;;;;24.42;13.70;;;;;;;;;;5033012;28;20728;-64
2021/07/18 11:30:28;;;;;;;17.38;11.75;;;;;;;;;;5000232;28;20798;-63
2021/07/18 11:32:53;;;;;;;22.75;13.32;;;;;;;;;;5006454;28;20054;-65
2021/07/18 11:35:19;;;;;;;25.83;14.38;;;;;;;;;;5011285;28;20058;-64
2021/07/18 11:37:47;;;;;;;21.95;12.70;;;;;;;;;;5009720;28;20076;-63
2021/07/18 11:40:12;;;;;;;21.42;12.82;;;;;;;;;;5014117;28;20026;-64
2021/07/18 11:42:37;;;;;;;20.67;13.03;;;;;;;;;;5018598;28;20071;-64
2021/07/18 11:45:07;;;;;;;18.77;11.63;;;;;;;;;;5005044;28;20842;-63
2021/07/18 11:47:32;;;;;;;19.33;12.20;;;;;;;;;;5012476;28;20239;-65
2021/07/18 11:49:57;;;;;;;22.42;13.85;;;;;;;;;;5021500;28;20133;-66
2021/07/18 11:52:24;;;;;;;19.50;12.47;;;;;;;;;;5010636;28;20103;-67
2021/07/18 11:54:49;;;;;;;23.27;13.90;;;;;;;;;;5015216;28;20355;-69
2021/07/18 11:57:15;;;;;;;19.40;11.45;;;;;;;;;;5010186;28;20121;-67
2021/07/18 11:59:42;;;;;;;24.00;13.63;;;;;;;;;;4995111;28;20025;-68
2021/07/18 12:02:08;;;;;;;22.95;13.00;;;;;;;;;;5014003;28;20064;-64
2021/07/18 12:04:33;;;;;;;21.40;13.60;;;;;;;;;;5029515;28;20029;-64
2021/07/18 12:07:00;;;;;;;20.05;13.35;;;;;;;;;;5026928;28;20055;-65
2021/07/18 12:09:29;;;;;;;19.83;11.70;;;;;;;;;;5028828;28;20016;-64
2021/07/18 12:11:55;;;;;;;;;;;;;;;;;;5024751;28;20021;-65
2021/07/18 12:14:20;;;;;;;21.70;11.82;;;;;;;;;;5026417;28;20807;-64
2021/07/18 12:16:46;;;;;;;18.23;12.52;;;;;;;;;;5026746;28;20025;-65
2021/07/18 12:19:12;;;;;;;21.35;11.88;;;;;;;;;;5026948;28;20075;-65
2021/07/18 12:21:39;;;;;;;21.58;14.30;;;;;;;;;;5022841;28;20018;-65
2021/07/18 12:24:13;;;;;;;20.38;11.27;;;;;;;;;;5024474;28;20428;-64
2021/07/18 12:26:39;;;;;;;21.92;12.60;;;;;;;;;;5027295;28;20075;-65
2021/07/18 12:29:07;;;;;;;19.63;11.98;;;;;;;;;;5026469;28;20061;-64
2021/07/18 12:31:32;;;;;;;20.60;11.23;;;;;;;;;;5027770;28;20384;-64
2021/07/18 12:33:58;;;;;;;19.35;11.25;;;;;;;;;;5030884;28;20025;-63
2021/07/18 12:36:23;;;;;;;18.30;12.50;;;;;;;;;;5028634;28;20044;-68
2021/07/18 12:38:48;;;;;;;16.00;10.55;;;;;;;;;;5031795;28;20355;-63
2021/07/18 12:41:13;;;;;;;19.42;12.40;;;;;;;;;;5028075;28;20021;-64
2021/07/18 12:43:39;;;;;;;17.65;11.80;;;;;;;;;;5028629;28;20013;-65
2021/07/18 12:46:04;;;;;;;16.50;11.40;;;;;;;;;;5033377;28;20151;-63
2021/07/18 12:48:29;;;;;;;21.73;12.10;;;;;;;;;;5028659;28;20033;-64
2021/07/18 12:50:55;;;;;;;19.20;11.90;;;;;;;;;;5030596;28;20629;-63
2021/07/18 12:53:20;;;;;;;16.80;10.85;;;;;;;;;;5031562;28;20018;-64
2021/07/18 12:55:58;;;;;;;18.95;11.27;;;;;;;;;;5030417;28;20071;-64
2021/07/18 12:58:24;;;;;;;18.20;12.45;;;;;;;;;;5029313;28;20053;-64
2021/07/18 13:01:05;;;;;;;18.77;11.43;;;;;;;;;;5026606;28;20025;-63
2021/07/18 13:03:40;;;;;;;16.33;11.38;;;;;;;;;;5029069;28;20029;-64
2021/07/18 13:06:07;;;;;;;16.75;10.82;;;;;;;;;;5028371;28;20559;-63
2021/07/18 13:08:42;;;;;;;17.90;10.27;;;;;;;;;;5029156;28;20053;-64
2021/07/18 13:11:26;;;;;;;18.77;10.30;;;;;;;;;;5028326;28;20022;-64
2021/07/18 13:13:51;;;;;;;17.92;13.52;;;;;;;;;;5029998;28;20032;-64
2021/07/18 13:16:16;;;;;;;17.27;10.83;;;;;;;;;;5029472;28;20096;-63
2021/07/18 13:18:41;;;;;;;20.03;11.30;;;;;;;;;;5030712;28;20038;-63
2021/07/18 13:21:10;;;;;;;16.40;10.87;;;;;;;;;;5022690;28;20309;-64
2021/07/18 13:23:37;;;;;;;13.25;9.82;;;;;;;;;;5029949;28;20351;-63
2021/07/18 13:26:03;;;;;;;15.23;9.48;;;;;;;;;;5029468;28;20479;-64
2021/07/18 13:28:28;;;;;;;19.90;10.17;;;;;;;;;;5029932;28;20045;-63
2021/07/18 13:30:54;;;;;;;19.10;11.93;;;;;;;;;;5029339;28;20033;-64
2021/07/18 13:33:20;;;;;;;17.92;13.13;;;;;;;;;;5029270;28;20366;-64
2021/07/18 13:35:49;;;;;;;17.20;12.73;;;;;;;;;;5028478;28;20057;-63
2021/07/18 13:38:14;;;;;;;;;;;;;;;;;;5030313;28;20033;-64
2021/07/18 13:40:42;;;;;;;16.60;9.70;;;;;;;;;;5028965;28;20111;-63
2021/07/18 13:43:12;;;;;;;18.10;12.27;;;;;;;;;;5027671;28;20049;-63
2021/07/18 13:45:38;;;;;;;15.55;9.88;;;;;;;;;;5028985;28;20029;-63
2021/07/18 13:48:05;;;;;;;19.17;12.05;;;;;;;;;;5027098;28;20159;-62
2021/07/18 13:50:30;;;;;;;14.10;9.35;;;;;;;;;;5026667;28;20056;-63
2021/07/18 13:52:55;;;;;;;15.45;9.07;;;;;;;;;;5026551;28;20021;-63
2021/07/18 13:55:21;;;;;;;15.48;9.98;;;;;;;;;;5029852;28;20040;-64
2021/07/18 13:57:46;;;;;;;14.43;9.57;;;;;;;;;;5026691;28;20013;-63
2021/07/18 14:00:11;;;;;;;17.30;9.70;;;;;;;;;;5028685;28;20030;-63
2021/07/18 14:02:36;;;;;;;17.50;10.65;;;;;;;;;;5030768;28;20021;-62
2021/07/18 14:05:03;;;;;;;13.40;9.33;;;;;;;;;;5028027;28;20033;-64
2021/07/18 14:07:28;;;;;;;15.98;8.10;;;;;;;;;;5031508;28;20367;-63
2021/07/18 14:09:53;;;;;;;14.00;8.47;;;;;;;;;;5028322;28;20536;-63
2021/07/18 14:12:19;;;;;;;9.40;7.10;;;;;;;;;;5029695;28;20280;-64
2021/07/18 14:14:47;;;;;;;11.20;7.37;;;;;;;;;;5024399;28;20355;-64
2021/07/18 14:17:12;;;;;;;10.82;7.18;;;;;;;;;;5028408;28;20021;-64
2021/07/18 14:19:37;;;;;;;11.98;7.80;;;;;;;;;;5031629;28;20033;-64
2021/07/18 14:22:03;;;;;;;12.63;7.83;;;;;;;;;;5029105;28;20112;-64
2021/07/18 14:24:28;;;;;;;11.82;8.25;;;;;;;;;;5027800;28;20264;-63